sensor_id;sensor_type;location;lat;lon;timestamp;P1;durP1;ratioP1;P2;durP2;ratioP2
2610;SDS011;5612;51.134;17.058;2023-02-01T00:01:35;3.37;;;1.03;;
2610;SDS011;5612;51.134;17.058;2023-02-01T00:04:04;4.80;;;1.67;;
2610;SDS011;5612;51.134;17.058;2023-02-01T00:06:33;2.20;;;1.20;;
2610;SDS011;5612;51.134;17.058;2023-02-01T00:09:02;2.20;;;1.20;;
2610;SDS011;5612;51.134;17.058;2023-02-01T00:11:31;6.03;;;2.63;;
2610;SDS011;5612;51.134;17.058;2023-02-01T00:14:00;2.43;;;1.73;;
2610;SDS011;5612;51.134;17.058;2023-02-01T00:16:30;2.27;;;1.03;;
2610;SDS011;5612;51.134;17.058;2023-02-01T00:19:00;2.03;;;1.47;;
2610;SDS011;5612;51.134;17.058;2023-02-01T00:21:30;2.50;;;1.20;;
2610;SDS011;5612;51.134;17.058;2023-02-01T00:23:59;2.40;;;1.27;;
2610;SDS011;5612;51.134;17.058;2023-02-01T00:26:30;2.47;;;1.13;;
2610;SDS011;5612;51.134;17.058;2023-02-01T00:29:01;2.03;;;1.40;;
2610;SDS011;5612;51.134;17.058;2023-02-01T00:31:32;3.60;;;1.53;;
2610;SDS011;5612;51.134;17.058;2023-02-01T00:34:01;2.83;;;2.00;;
2610;SDS011;5612;51.134;17.058;2023-02-01T00:36:30;2.50;;;1.37;;
2610;SDS011;5612;51.134;17.058;2023-02-01T00:38:59;5.37;;;1.80;;
2610;SDS011;5612;51.134;17.058;2023-02-01T00:41:28;5.70;;;1.77;;
2610;SDS011;5612;51.134;17.058;2023-02-01T00:43:57;5.27;;;1.60;;
2610;SDS011;5612;51.134;17.058;2023-02-01T00:46:26;2.47;;;1.50;;
2610;SDS011;5612;51.134;17.058;2023-02-01T00:48:57;6.20;;;1.40;;
2610;SDS011;5612;51.134;17.058;2023-02-01T00:51:27;2.60;;;1.80;;
2610;SDS011;5612;51.134;17.058;2023-02-01T00:53:56;1.40;;;1.27;;
2610;SDS011;5612;51.134;17.058;2023-02-01T00:56:25;2.17;;;1.73;;
2610;SDS011;5612;51.134;17.058;2023-02-01T00:58:55;2.70;;;1.50;;
2610;SDS011;5612;51.134;17.058;2023-02-01T01:01:25;2.47;;;2.07;;
2610;SDS011;5612;51.134;17.058;2023-02-01T01:03:55;3.97;;;2.10;;
2610;SDS011;5612;51.134;17.058;2023-02-01T01:06:28;2.00;;;1.40;;
2610;SDS011;5612;51.134;17.058;2023-02-01T01:09:00;4.37;;;1.87;;
2610;SDS011;5612;51.134;17.058;2023-02-01T01:11:31;4.07;;;1.93;;
2610;SDS011;5612;51.134;17.058;2023-02-01T01:14:01;1.87;;;1.73;;
2610;SDS011;5612;51.134;17.058;2023-02-01T01:16:31;4.27;;;3.07;;
2610;SDS011;5612;51.134;17.058;2023-02-01T01:19:02;5.17;;;2.17;;
2610;SDS011;5612;51.134;17.058;2023-02-01T01:21:32;4.47;;;2.27;;
2610;SDS011;5612;51.134;17.058;2023-02-01T01:24:01;4.50;;;2.13;;
2610;SDS011;5612;51.134;17.058;2023-02-01T01:26:30;4.43;;;2.37;;
2610;SDS011;5612;51.134;17.058;2023-02-01T01:28:58;4.10;;;2.10;;
2610;SDS011;5612;51.134;17.058;2023-02-01T01:31:27;3.43;;;1.83;;
2610;SDS011;5612;51.134;17.058;2023-02-01T01:33:57;5.00;;;2.73;;
2610;SDS011;5612;51.134;17.058;2023-02-01T01:36:28;2.47;;;1.73;;
2610;SDS011;5612;51.134;17.058;2023-02-01T01:38:57;3.97;;;1.83;;
2610;SDS011;5612;51.134;17.058;2023-02-01T01:41:28;5.70;;;1.63;;
2610;SDS011;5612;51.134;17.058;2023-02-01T01:43:59;5.17;;;1.70;;
2610;SDS011;5612;51.134;17.058;2023-02-01T01:46:30;2.93;;;1.23;;
2610;SDS011;5612;51.134;17.058;2023-02-01T01:49:01;3.90;;;1.20;;
2610;SDS011;5612;51.134;17.058;2023-02-01T01:51:37;1.00;;;0.90;;
2610;SDS011;5612;51.134;17.058;2023-02-01T01:54:11;2.83;;;1.37;;
2610;SDS011;5612;51.134;17.058;2023-02-01T01:56:45;2.27;;;1.00;;
2610;SDS011;5612;51.134;17.058;2023-02-01T01:59:17;4.37;;;1.50;;
2610;SDS011;5612;51.134;17.058;2023-02-01T02:01:47;2.93;;;1.60;;
2610;SDS011;5612;51.134;17.058;2023-02-01T02:04:16;3.43;;;1.80;;
2610;SDS011;5612;51.134;17.058;2023-02-01T02:06:49;7.20;;;2.10;;
2610;SDS011;5612;51.134;17.058;2023-02-01T02:09:22;3.27;;;1.70;;
2610;SDS011;5612;51.134;17.058;2023-02-01T02:11:51;4.67;;;2.13;;
2610;SDS011;5612;51.134;17.058;2023-02-01T02:14:20;6.70;;;2.53;;
2610;SDS011;5612;51.134;17.058;2023-02-01T02:16:59;2.90;;;2.43;;
2610;SDS011;5612;51.134;17.058;2023-02-01T02:19:55;6.27;;;2.47;;
2610;SDS011;5612;51.134;17.058;2023-02-01T02:26:07;5.20;;;3.83;;
2610;SDS011;5612;51.134;17.058;2023-02-01T02:31:59;4.30;;;3.10;;
2610;SDS011;5612;51.134;17.058;2023-02-01T02:34:56;6.70;;;2.37;;
2610;SDS011;5612;51.134;17.058;2023-02-01T02:37:34;4.30;;;3.57;;
2610;SDS011;5612;51.134;17.058;2023-02-01T02:40:11;6.93;;;3.33;;
2610;SDS011;5612;51.134;17.058;2023-02-01T02:42:46;8.77;;;2.63;;
2610;SDS011;5612;51.134;17.058;2023-02-01T02:45:40;9.20;;;2.37;;
2610;SDS011;5612;51.134;17.058;2023-02-01T02:48:30;6.80;;;3.57;;
2610;SDS011;5612;51.134;17.058;2023-02-01T02:51:09;6.73;;;3.23;;
2610;SDS011;5612;51.134;17.058;2023-02-01T02:54:00;5.87;;;2.50;;
2610;SDS011;5612;51.134;17.058;2023-02-01T02:56:51;10.70;;;2.53;;
2610;SDS011;5612;51.134;17.058;2023-02-01T02:59:39;12.50;;;4.30;;
2610;SDS011;5612;51.134;17.058;2023-02-01T03:02:28;6.70;;;2.47;;
2610;SDS011;5612;51.134;17.058;2023-02-01T03:05:15;6.53;;;3.23;;
2610;SDS011;5612;51.134;17.058;2023-02-01T03:07:55;6.40;;;2.30;;
2610;SDS011;5612;51.134;17.058;2023-02-01T03:10:35;9.20;;;3.57;;
2610;SDS011;5612;51.134;17.058;2023-02-01T03:13:12;5.93;;;2.90;;
2610;SDS011;5612;51.134;17.058;2023-02-01T03:15:53;6.87;;;4.13;;
2610;SDS011;5612;51.134;17.058;2023-02-01T03:18:30;9.30;;;2.93;;
2610;SDS011;5612;51.134;17.058;2023-02-01T03:21:05;10.40;;;3.30;;
2610;SDS011;5612;51.134;17.058;2023-02-01T03:23:39;4.63;;;3.20;;
2610;SDS011;5612;51.134;17.058;2023-02-01T03:26:11;5.57;;;3.00;;
2610;SDS011;5612;51.134;17.058;2023-02-01T03:28:43;8.60;;;3.23;;
2610;SDS011;5612;51.134;17.058;2023-02-01T03:31:17;10.47;;;3.03;;
2610;SDS011;5612;51.134;17.058;2023-02-01T03:33:46;13.77;;;3.43;;
2610;SDS011;5612;51.134;17.058;2023-02-01T03:36:15;10.70;;;4.30;;
2610;SDS011;5612;51.134;17.058;2023-02-01T03:38:54;7.63;;;3.67;;
2610;SDS011;5612;51.134;17.058;2023-02-01T03:41:30;8.90;;;3.13;;
2610;SDS011;5612;51.134;17.058;2023-02-01T03:44:05;5.57;;;3.40;;
2610;SDS011;5612;51.134;17.058;2023-02-01T03:46:40;12.60;;;3.57;;
2610;SDS011;5612;51.134;17.058;2023-02-01T03:49:12;6.77;;;2.37;;
2610;SDS011;5612;51.134;17.058;2023-02-01T03:51:46;8.07;;;4.07;;
2610;SDS011;5612;51.134;17.058;2023-02-01T03:54:18;11.67;;;2.57;;
2610;SDS011;5612;51.134;17.058;2023-02-01T03:56:48;8.60;;;3.50;;
2610;SDS011;5612;51.134;17.058;2023-02-01T03:59:18;6.13;;;2.80;;
2610;SDS011;5612;51.134;17.058;2023-02-01T04:01:47;5.77;;;2.80;;
2610;SDS011;5612;51.134;17.058;2023-02-01T04:04:16;11.03;;;3.47;;
2610;SDS011;5612;51.134;17.058;2023-02-01T04:06:47;9.30;;;2.90;;
2610;SDS011;5612;51.134;17.058;2023-02-01T04:09:16;5.73;;;2.87;;
2610;SDS011;5612;51.134;17.058;2023-02-01T04:11:47;11.53;;;4.23;;
2610;SDS011;5612;51.134;17.058;2023-02-01T04:14:16;7.83;;;2.77;;
2610;SDS011;5612;51.134;17.058;2023-02-01T04:16:45;8.80;;;2.90;;
2610;SDS011;5612;51.134;17.058;2023-02-01T04:19:13;5.37;;;3.20;;
2610;SDS011;5612;51.134;17.058;2023-02-01T04:21:42;5.33;;;2.80;;
2610;SDS011;5612;51.134;17.058;2023-02-01T04:24:11;11.03;;;3.20;;
2610;SDS011;5612;51.134;17.058;2023-02-01T04:26:41;6.17;;;3.13;;
2610;SDS011;5612;51.134;17.058;2023-02-01T04:29:10;14.50;;;3.73;;
2610;SDS011;5612;51.134;17.058;2023-02-01T04:31:39;13.87;;;3.40;;
2610;SDS011;5612;51.134;17.058;2023-02-01T04:34:08;7.73;;;3.47;;
2610;SDS011;5612;51.134;17.058;2023-02-01T04:36:37;6.20;;;3.50;;
2610;SDS011;5612;51.134;17.058;2023-02-01T04:39:06;11.17;;;3.60;;
2610;SDS011;5612;51.134;17.058;2023-02-01T04:41:36;7.20;;;2.93;;
2610;SDS011;5612;51.134;17.058;2023-02-01T04:44:08;9.23;;;4.07;;
2610;SDS011;5612;51.134;17.058;2023-02-01T04:46:40;6.80;;;6.00;;
2610;SDS011;5612;51.134;17.058;2023-02-01T04:49:09;8.50;;;3.50;;
2610;SDS011;5612;51.134;17.058;2023-02-01T04:51:39;8.30;;;3.00;;
2610;SDS011;5612;51.134;17.058;2023-02-01T04:54:08;8.00;;;3.23;;
2610;SDS011;5612;51.134;17.058;2023-02-01T04:56:38;7.33;;;3.00;;
2610;SDS011;5612;51.134;17.058;2023-02-01T04:59:09;5.57;;;3.57;;
2610;SDS011;5612;51.134;17.058;2023-02-01T05:01:39;12.07;;;4.77;;
2610;SDS011;5612;51.134;17.058;2023-02-01T05:04:08;7.27;;;3.40;;
2610;SDS011;5612;51.134;17.058;2023-02-01T05:06:36;6.77;;;3.03;;
2610;SDS011;5612;51.134;17.058;2023-02-01T05:09:05;11.83;;;3.70;;
2610;SDS011;5612;51.134;17.058;2023-02-01T05:11:34;11.80;;;4.33;;
2610;SDS011;5612;51.134;17.058;2023-02-01T05:14:21;7.53;;;3.40;;
2610;SDS011;5612;51.134;17.058;2023-02-01T05:16:50;7.90;;;3.20;;
2610;SDS011;5612;51.134;17.058;2023-02-01T05:19:19;10.10;;;3.17;;
2610;SDS011;5612;51.134;17.058;2023-02-01T05:21:48;7.13;;;3.47;;
2610;SDS011;5612;51.134;17.058;2023-02-01T05:24:16;7.53;;;3.57;;
2610;SDS011;5612;51.134;17.058;2023-02-01T05:26:47;4.53;;;3.03;;
2610;SDS011;5612;51.134;17.058;2023-02-01T05:29:17;9.40;;;3.80;;
2610;SDS011;5612;51.134;17.058;2023-02-01T05:31:48;7.40;;;2.83;;
2610;SDS011;5612;51.134;17.058;2023-02-01T05:34:17;6.53;;;3.53;;
2610;SDS011;5612;51.134;17.058;2023-02-01T05:36:46;8.63;;;3.77;;
2610;SDS011;5612;51.134;17.058;2023-02-01T05:39:15;6.57;;;2.77;;
2610;SDS011;5612;51.134;17.058;2023-02-01T05:41:43;12.90;;;4.13;;
2610;SDS011;5612;51.134;17.058;2023-02-01T05:44:12;6.43;;;3.30;;
2610;SDS011;5612;51.134;17.058;2023-02-01T05:46:41;16.10;;;3.60;;
2610;SDS011;5612;51.134;17.058;2023-02-01T05:49:11;6.10;;;3.57;;
2610;SDS011;5612;51.134;17.058;2023-02-01T05:51:40;5.83;;;3.10;;
2610;SDS011;5612;51.134;17.058;2023-02-01T05:54:09;9.70;;;4.53;;
2610;SDS011;5612;51.134;17.058;2023-02-01T05:56:38;8.10;;;3.37;;
2610;SDS011;5612;51.134;17.058;2023-02-01T05:59:08;5.03;;;2.87;;
2610;SDS011;5612;51.134;17.058;2023-02-01T06:01:37;6.80;;;3.53;;
2610;SDS011;5612;51.134;17.058;2023-02-01T06:04:06;5.10;;;2.87;;
2610;SDS011;5612;51.134;17.058;2023-02-01T06:06:36;5.30;;;3.03;;
2610;SDS011;5612;51.134;17.058;2023-02-01T06:09:05;7.30;;;2.47;;
2610;SDS011;5612;51.134;17.058;2023-02-01T06:11:33;9.17;;;2.83;;
2610;SDS011;5612;51.134;17.058;2023-02-01T06:14:02;7.03;;;2.73;;
2610;SDS011;5612;51.134;17.058;2023-02-01T06:16:31;8.67;;;3.70;;
2610;SDS011;5612;51.134;17.058;2023-02-01T06:18:59;10.33;;;3.53;;
2610;SDS011;5612;51.134;17.058;2023-02-01T06:21:28;6.60;;;2.90;;
2610;SDS011;5612;51.134;17.058;2023-02-01T06:23:58;5.67;;;3.17;;
2610;SDS011;5612;51.134;17.058;2023-02-01T06:26:27;7.93;;;3.80;;
2610;SDS011;5612;51.134;17.058;2023-02-01T06:28:56;9.60;;;3.63;;
2610;SDS011;5612;51.134;17.058;2023-02-01T06:31:25;6.53;;;3.00;;
2610;SDS011;5612;51.134;17.058;2023-02-01T06:33:54;6.37;;;3.30;;
2610;SDS011;5612;51.134;17.058;2023-02-01T06:36:25;8.70;;;3.00;;
2610;SDS011;5612;51.134;17.058;2023-02-01T06:38:54;10.93;;;3.20;;
2610;SDS011;5612;51.134;17.058;2023-02-01T06:41:27;8.70;;;3.03;;
2610;SDS011;5612;51.134;17.058;2023-02-01T06:43:56;9.30;;;3.90;;
2610;SDS011;5612;51.134;17.058;2023-02-01T06:46:24;6.63;;;2.80;;
2610;SDS011;5612;51.134;17.058;2023-02-01T06:48:53;5.50;;;3.20;;
2610;SDS011;5612;51.134;17.058;2023-02-01T06:51:23;8.50;;;3.27;;
2610;SDS011;5612;51.134;17.058;2023-02-01T06:53:53;8.33;;;4.23;;
2610;SDS011;5612;51.134;17.058;2023-02-01T06:56:22;5.87;;;3.23;;
2610;SDS011;5612;51.134;17.058;2023-02-01T06:58:52;9.80;;;3.37;;
2610;SDS011;5612;51.134;17.058;2023-02-01T07:01:21;9.83;;;3.60;;
2610;SDS011;5612;51.134;17.058;2023-02-01T07:03:50;9.37;;;3.67;;
2610;SDS011;5612;51.134;17.058;2023-02-01T07:06:19;6.90;;;3.23;;
2610;SDS011;5612;51.134;17.058;2023-02-01T07:08:48;6.20;;;4.40;;
2610;SDS011;5612;51.134;17.058;2023-02-01T07:11:17;6.67;;;3.00;;
2610;SDS011;5612;51.134;17.058;2023-02-01T07:13:47;12.07;;;4.30;;
2610;SDS011;5612;51.134;17.058;2023-02-01T07:16:18;12.07;;;3.30;;
2610;SDS011;5612;51.134;17.058;2023-02-01T07:18:49;8.87;;;3.40;;
2610;SDS011;5612;51.134;17.058;2023-02-01T07:21:19;7.50;;;4.00;;
2610;SDS011;5612;51.134;17.058;2023-02-01T07:23:49;11.33;;;3.60;;
2610;SDS011;5612;51.134;17.058;2023-02-01T07:26:18;8.07;;;3.90;;
2610;SDS011;5612;51.134;17.058;2023-02-01T07:28:47;17.40;;;4.23;;
2610;SDS011;5612;51.134;17.058;2023-02-01T07:31:18;9.30;;;3.73;;
2610;SDS011;5612;51.134;17.058;2023-02-01T07:33:48;5.57;;;4.90;;
2610;SDS011;5612;51.134;17.058;2023-02-01T07:36:19;10.00;;;4.23;;
2610;SDS011;5612;51.134;17.058;2023-02-01T07:38:48;12.73;;;3.80;;
2610;SDS011;5612;51.134;17.058;2023-02-01T07:41:21;6.30;;;3.47;;
2610;SDS011;5612;51.134;17.058;2023-02-01T07:43:52;9.97;;;3.30;;
2610;SDS011;5612;51.134;17.058;2023-02-01T07:46:22;8.63;;;3.23;;
2610;SDS011;5612;51.134;17.058;2023-02-01T07:48:51;8.03;;;4.37;;
2610;SDS011;5612;51.134;17.058;2023-02-01T07:51:20;7.47;;;3.40;;
2610;SDS011;5612;51.134;17.058;2023-02-01T07:53:49;6.13;;;4.50;;
2610;SDS011;5612;51.134;17.058;2023-02-01T07:56:23;9.27;;;3.40;;
2610;SDS011;5612;51.134;17.058;2023-02-01T07:58:53;8.60;;;3.40;;
2610;SDS011;5612;51.134;17.058;2023-02-01T08:01:28;10.23;;;3.63;;
2610;SDS011;5612;51.134;17.058;2023-02-01T08:03:57;5.47;;;3.20;;
2610;SDS011;5612;51.134;17.058;2023-02-01T08:06:27;7.60;;;3.07;;
2610;SDS011;5612;51.134;17.058;2023-02-01T08:08:58;5.20;;;3.50;;
2610;SDS011;5612;51.134;17.058;2023-02-01T08:11:27;11.60;;;3.67;;
2610;SDS011;5612;51.134;17.058;2023-02-01T08:13:57;5.67;;;3.20;;
2610;SDS011;5612;51.134;17.058;2023-02-01T08:16:29;4.90;;;2.93;;
2610;SDS011;5612;51.134;17.058;2023-02-01T08:18:58;8.57;;;3.20;;
2610;SDS011;5612;51.134;17.058;2023-02-01T08:21:27;8.47;;;4.00;;
2610;SDS011;5612;51.134;17.058;2023-02-01T08:24:04;12.00;;;4.00;;
2610;SDS011;5612;51.134;17.058;2023-02-01T08:26:33;7.20;;;2.90;;
2610;SDS011;5612;51.134;17.058;2023-02-01T08:29:03;6.27;;;3.53;;
2610;SDS011;5612;51.134;17.058;2023-02-01T08:31:35;8.60;;;3.63;;
2610;SDS011;5612;51.134;17.058;2023-02-01T08:34:07;12.13;;;4.10;;
2610;SDS011;5612;51.134;17.058;2023-02-01T08:36:36;8.20;;;2.90;;
2610;SDS011;5612;51.134;17.058;2023-02-01T08:39:05;5.80;;;3.30;;
2610;SDS011;5612;51.134;17.058;2023-02-01T08:41:35;9.97;;;3.93;;
2610;SDS011;5612;51.134;17.058;2023-02-01T08:44:04;10.90;;;3.60;;
2610;SDS011;5612;51.134;17.058;2023-02-01T08:46:35;7.10;;;3.50;;
2610;SDS011;5612;51.134;17.058;2023-02-01T08:49:04;6.90;;;3.87;;
2610;SDS011;5612;51.134;17.058;2023-02-01T08:51:33;5.60;;;3.60;;
2610;SDS011;5612;51.134;17.058;2023-02-01T08:54:04;8.30;;;3.63;;
2610;SDS011;5612;51.134;17.058;2023-02-01T08:56:49;5.67;;;3.03;;
2610;SDS011;5612;51.134;17.058;2023-02-01T08:59:35;6.27;;;3.97;;
2610;SDS011;5612;51.134;17.058;2023-02-01T09:02:08;11.17;;;4.57;;
2610;SDS011;5612;51.134;17.058;2023-02-01T09:04:49;6.30;;;4.60;;
2610;SDS011;5612;51.134;17.058;2023-02-01T09:07:31;5.90;;;3.33;;
2610;SDS011;5612;51.134;17.058;2023-02-01T09:10:01;9.40;;;4.40;;
2610;SDS011;5612;51.134;17.058;2023-02-01T09:12:32;9.20;;;4.20;;
2610;SDS011;5612;51.134;17.058;2023-02-01T09:15:02;10.70;;;4.70;;
2610;SDS011;5612;51.134;17.058;2023-02-01T09:17:35;9.87;;;4.83;;
2610;SDS011;5612;51.134;17.058;2023-02-01T09:20:04;10.43;;;4.27;;
2610;SDS011;5612;51.134;17.058;2023-02-01T09:22:34;10.03;;;5.67;;
2610;SDS011;5612;51.134;17.058;2023-02-01T09:25:03;7.27;;;4.90;;
2610;SDS011;5612;51.134;17.058;2023-02-01T09:27:32;8.60;;;5.40;;
2610;SDS011;5612;51.134;17.058;2023-02-01T09:30:04;8.30;;;4.43;;
2610;SDS011;5612;51.134;17.058;2023-02-01T09:32:51;7.47;;;3.80;;
2610;SDS011;5612;51.134;17.058;2023-02-01T09:35:20;9.10;;;3.60;;
2610;SDS011;5612;51.134;17.058;2023-02-01T09:37:49;9.70;;;3.90;;
2610;SDS011;5612;51.134;17.058;2023-02-01T09:40:20;7.90;;;3.43;;
2610;SDS011;5612;51.134;17.058;2023-02-01T09:43:03;8.03;;;3.20;;
2610;SDS011;5612;51.134;17.058;2023-02-01T09:45:43;4.70;;;3.00;;
2610;SDS011;5612;51.134;17.058;2023-02-01T09:48:21;4.17;;;2.73;;
2610;SDS011;5612;51.134;17.058;2023-02-01T09:50:58;5.43;;;3.30;;
2610;SDS011;5612;51.134;17.058;2023-02-01T09:53:32;4.30;;;3.67;;
2610;SDS011;5612;51.134;17.058;2023-02-01T09:56:04;5.10;;;3.57;;
2610;SDS011;5612;51.134;17.058;2023-02-01T09:58:35;5.17;;;3.40;;
2610;SDS011;5612;51.134;17.058;2023-02-01T10:01:09;4.03;;;3.00;;
2610;SDS011;5612;51.134;17.058;2023-02-01T10:03:46;4.00;;;3.40;;
2610;SDS011;5612;51.134;17.058;2023-02-01T10:06:23;4.80;;;3.43;;
2610;SDS011;5612;51.134;17.058;2023-02-01T10:09:13;3.30;;;2.67;;
2610;SDS011;5612;51.134;17.058;2023-02-01T10:12:28;5.23;;;3.37;;
2610;SDS011;5612;51.134;17.058;2023-02-01T10:15:13;4.57;;;3.07;;
2610;SDS011;5612;51.134;17.058;2023-02-01T10:17:54;3.77;;;3.43;;
2610;SDS011;5612;51.134;17.058;2023-02-01T10:20:41;5.77;;;3.00;;
2610;SDS011;5612;51.134;17.058;2023-02-01T10:23:25;5.30;;;3.00;;
2610;SDS011;5612;51.134;17.058;2023-02-01T10:26:17;7.50;;;4.10;;
2610;SDS011;5612;51.134;17.058;2023-02-01T10:28:49;4.80;;;3.47;;
2610;SDS011;5612;51.134;17.058;2023-02-01T10:31:20;6.27;;;3.50;;
2610;SDS011;5612;51.134;17.058;2023-02-01T10:33:55;5.60;;;3.60;;
2610;SDS011;5612;51.134;17.058;2023-02-01T10:36:28;3.63;;;3.27;;
2610;SDS011;5612;51.134;17.058;2023-02-01T10:39:00;5.13;;;3.50;;
2610;SDS011;5612;51.134;17.058;2023-02-01T10:41:31;4.00;;;3.40;;
2610;SDS011;5612;51.134;17.058;2023-02-01T10:44:02;6.90;;;4.20;;
2610;SDS011;5612;51.134;17.058;2023-02-01T10:46:34;8.13;;;3.60;;
2610;SDS011;5612;51.134;17.058;2023-02-01T10:49:03;4.10;;;3.40;;
2610;SDS011;5612;51.134;17.058;2023-02-01T10:51:39;4.43;;;3.80;;
2610;SDS011;5612;51.134;17.058;2023-02-01T10:54:15;9.60;;;3.93;;
2610;SDS011;5612;51.134;17.058;2023-02-01T10:56:47;7.60;;;4.07;;
2610;SDS011;5612;51.134;17.058;2023-02-01T10:59:18;6.60;;;4.07;;
2610;SDS011;5612;51.134;17.058;2023-02-01T11:01:48;4.73;;;3.80;;
2610;SDS011;5612;51.134;17.058;2023-02-01T11:04:18;7.97;;;4.67;;
2610;SDS011;5612;51.134;17.058;2023-02-01T11:06:51;8.17;;;3.80;;
2610;SDS011;5612;51.134;17.058;2023-02-01T11:09:35;5.40;;;3.73;;
2610;SDS011;5612;51.134;17.058;2023-02-01T11:12:21;9.17;;;5.07;;
2610;SDS011;5612;51.134;17.058;2023-02-01T11:15:11;5.20;;;3.87;;
2610;SDS011;5612;51.134;17.058;2023-02-01T11:17:43;4.93;;;4.00;;
2610;SDS011;5612;51.134;17.058;2023-02-01T11:20:14;5.50;;;4.30;;
2610;SDS011;5612;51.134;17.058;2023-02-01T11:22:47;6.10;;;3.90;;
2610;SDS011;5612;51.134;17.058;2023-02-01T11:25:21;9.07;;;5.10;;
2610;SDS011;5612;51.134;17.058;2023-02-01T11:27:53;6.93;;;4.33;;
2610;SDS011;5612;51.134;17.058;2023-02-01T11:30:27;5.57;;;4.80;;
2610;SDS011;5612;51.134;17.058;2023-02-01T11:33:01;5.67;;;4.50;;
2610;SDS011;5612;51.134;17.058;2023-02-01T11:35:32;10.13;;;4.53;;
2610;SDS011;5612;51.134;17.058;2023-02-01T11:38:13;5.63;;;4.97;;
2610;SDS011;5612;51.134;17.058;2023-02-01T11:40:49;8.63;;;4.40;;
2610;SDS011;5612;51.134;17.058;2023-02-01T11:43:22;3.90;;;3.20;;
2610;SDS011;5612;51.134;17.058;2023-02-01T11:45:56;5.20;;;3.70;;
2610;SDS011;5612;51.134;17.058;2023-02-01T11:48:27;4.83;;;3.27;;
2610;SDS011;5612;51.134;17.058;2023-02-01T11:51:04;3.23;;;3.00;;
2610;SDS011;5612;51.134;17.058;2023-02-01T11:53:56;4.03;;;3.63;;
2610;SDS011;5612;51.134;17.058;2023-02-01T11:56:40;4.63;;;4.23;;
2610;SDS011;5612;51.134;17.058;2023-02-01T11:59:27;7.40;;;4.13;;
2610;SDS011;5612;51.134;17.058;2023-02-01T12:02:20;6.07;;;4.30;;
2610;SDS011;5612;51.134;17.058;2023-02-01T12:05:19;4.87;;;3.90;;
2610;SDS011;5612;51.134;17.058;2023-02-01T12:08:06;3.40;;;3.10;;
2610;SDS011;5612;51.134;17.058;2023-02-01T12:10:54;6.10;;;3.50;;
2610;SDS011;5612;51.134;17.058;2023-02-01T12:13:38;6.57;;;4.20;;
2610;SDS011;5612;51.134;17.058;2023-02-01T12:16:18;5.10;;;4.63;;
2610;SDS011;5612;51.134;17.058;2023-02-01T12:19:00;6.17;;;3.70;;
2610;SDS011;5612;51.134;17.058;2023-02-01T12:21:44;8.13;;;3.47;;
2610;SDS011;5612;51.134;17.058;2023-02-01T12:24:42;5.43;;;4.20;;
2610;SDS011;5612;51.134;17.058;2023-02-01T12:27:35;4.23;;;3.80;;
2610;SDS011;5612;51.134;17.058;2023-02-01T12:30:20;3.57;;;3.27;;
2610;SDS011;5612;51.134;17.058;2023-02-01T12:33:15;4.93;;;3.17;;
2610;SDS011;5612;51.134;17.058;2023-02-01T12:36:01;5.97;;;3.03;;
2610;SDS011;5612;51.134;17.058;2023-02-01T12:38:42;3.60;;;3.30;;
2610;SDS011;5612;51.134;17.058;2023-02-01T12:41:26;3.43;;;3.13;;
2610;SDS011;5612;51.134;17.058;2023-02-01T12:44:10;4.73;;;3.10;;
2610;SDS011;5612;51.134;17.058;2023-02-01T12:46:54;3.67;;;3.33;;
2610;SDS011;5612;51.134;17.058;2023-02-01T12:49:28;6.60;;;3.27;;
2610;SDS011;5612;51.134;17.058;2023-02-01T12:52:06;6.27;;;3.10;;
2610;SDS011;5612;51.134;17.058;2023-02-01T12:54:41;3.73;;;2.87;;
2610;SDS011;5612;51.134;17.058;2023-02-01T12:57:17;3.77;;;2.97;;
2610;SDS011;5612;51.134;17.058;2023-02-01T12:59:56;3.40;;;3.10;;
2610;SDS011;5612;51.134;17.058;2023-02-01T13:02:35;7.40;;;4.00;;
2610;SDS011;5612;51.134;17.058;2023-02-01T13:05:14;5.77;;;3.97;;
2610;SDS011;5612;51.134;17.058;2023-02-01T13:07:47;3.93;;;3.50;;
2610;SDS011;5612;51.134;17.058;2023-02-01T13:10:21;5.13;;;3.40;;
2610;SDS011;5612;51.134;17.058;2023-02-01T13:12:58;4.00;;;3.60;;
2610;SDS011;5612;51.134;17.058;2023-02-01T13:15:37;3.90;;;3.50;;
2610;SDS011;5612;51.134;17.058;2023-02-01T13:18:11;7.17;;;4.30;;
2610;SDS011;5612;51.134;17.058;2023-02-01T13:20:46;6.80;;;4.90;;
2610;SDS011;5612;51.134;17.058;2023-02-01T13:23:26;3.67;;;3.33;;
2610;SDS011;5612;51.134;17.058;2023-02-01T13:26:02;4.10;;;3.37;;
2610;SDS011;5612;51.134;17.058;2023-02-01T13:28:40;3.70;;;3.50;;
2610;SDS011;5612;51.134;17.058;2023-02-01T13:31:29;4.73;;;4.20;;
2610;SDS011;5612;51.134;17.058;2023-02-01T13:37:27;13.70;;;9.40;;
2610;SDS011;5612;51.134;17.058;2023-02-01T13:40:11;9.23;;;8.00;;
2610;SDS011;5612;51.134;17.058;2023-02-01T13:42:49;4.23;;;3.80;;
2610;SDS011;5612;51.134;17.058;2023-02-01T13:45:21;8.60;;;6.97;;
2610;SDS011;5612;51.134;17.058;2023-02-01T13:47:55;9.20;;;7.23;;
2610;SDS011;5612;51.134;17.058;2023-02-01T13:50:26;3.73;;;3.33;;
2610;SDS011;5612;51.134;17.058;2023-02-01T13:52:58;4.50;;;2.93;;
2610;SDS011;5612;51.134;17.058;2023-02-01T13:55:29;5.03;;;4.57;;
2610;SDS011;5612;51.134;17.058;2023-02-01T13:58:05;3.70;;;3.40;;
2610;SDS011;5612;51.134;17.058;2023-02-01T14:00:45;6.67;;;4.20;;
2610;SDS011;5612;51.134;17.058;2023-02-01T14:03:19;4.60;;;3.40;;
2610;SDS011;5612;51.134;17.058;2023-02-01T14:05:57;3.00;;;2.70;;
2610;SDS011;5612;51.134;17.058;2023-02-01T14:08:45;2.97;;;2.73;;
2610;SDS011;5612;51.134;17.058;2023-02-01T14:11:31;6.20;;;5.60;;
2610;SDS011;5612;51.134;17.058;2023-02-01T14:23:28;8.57;;;4.37;;
2610;SDS011;5612;51.134;17.058;2023-02-01T14:26:11;4.47;;;2.80;;
2610;SDS011;5612;51.134;17.058;2023-02-01T14:28:46;4.80;;;3.47;;
2610;SDS011;5612;51.134;17.058;2023-02-01T14:31:37;5.40;;;4.73;;
2610;SDS011;5612;51.134;17.058;2023-02-01T14:34:34;8.20;;;3.60;;
2610;SDS011;5612;51.134;17.058;2023-02-01T14:37:10;4.83;;;3.63;;
2610;SDS011;5612;51.134;17.058;2023-02-01T14:39:56;6.90;;;3.40;;
2610;SDS011;5612;51.134;17.058;2023-02-01T14:42:32;6.53;;;4.80;;
2610;SDS011;5612;51.134;17.058;2023-02-01T14:51:11;7.63;;;4.00;;
2610;SDS011;5612;51.134;17.058;2023-02-01T14:53:44;3.80;;;3.50;;
2610;SDS011;5612;51.134;17.058;2023-02-01T14:56:16;8.33;;;4.30;;
2610;SDS011;5612;51.134;17.058;2023-02-01T14:58:50;6.07;;;3.83;;
2610;SDS011;5612;51.134;17.058;2023-02-01T15:01:23;4.37;;;3.40;;
2610;SDS011;5612;51.134;17.058;2023-02-01T15:03:59;7.40;;;3.40;;
2610;SDS011;5612;51.134;17.058;2023-02-01T15:06:32;5.87;;;5.10;;
2610;SDS011;5612;51.134;17.058;2023-02-01T15:09:07;4.57;;;3.80;;
2610;SDS011;5612;51.134;17.058;2023-02-01T15:12:00;4.27;;;3.80;;
2610;SDS011;5612;51.134;17.058;2023-02-01T15:14:32;6.53;;;3.90;;
2610;SDS011;5612;51.134;17.058;2023-02-01T15:17:15;7.30;;;4.07;;
2610;SDS011;5612;51.134;17.058;2023-02-01T15:19:53;6.87;;;4.97;;
2610;SDS011;5612;51.134;17.058;2023-02-01T15:22:22;7.67;;;4.63;;
2610;SDS011;5612;51.134;17.058;2023-02-01T15:24:53;5.70;;;4.10;;
2610;SDS011;5612;51.134;17.058;2023-02-01T15:27:25;5.87;;;3.43;;
2610;SDS011;5612;51.134;17.058;2023-02-01T15:29:54;9.80;;;7.47;;
2610;SDS011;5612;51.134;17.058;2023-02-01T15:32:34;4.97;;;3.87;;
2610;SDS011;5612;51.134;17.058;2023-02-01T15:38:20;5.93;;;4.50;;
2610;SDS011;5612;51.134;17.058;2023-02-01T15:40:59;5.70;;;4.47;;
2610;SDS011;5612;51.134;17.058;2023-02-01T15:43:32;8.77;;;4.93;;
2610;SDS011;5612;51.134;17.058;2023-02-01T15:46:07;5.53;;;3.90;;
2610;SDS011;5612;51.134;17.058;2023-02-01T15:48:40;5.00;;;4.37;;
2610;SDS011;5612;51.134;17.058;2023-02-01T15:51:16;5.40;;;4.53;;
2610;SDS011;5612;51.134;17.058;2023-02-01T15:53:47;8.60;;;4.07;;
2610;SDS011;5612;51.134;17.058;2023-02-01T15:56:23;6.50;;;3.30;;
2610;SDS011;5612;51.134;17.058;2023-02-01T15:58:55;4.23;;;3.40;;
2610;SDS011;5612;51.134;17.058;2023-02-01T16:01:27;6.87;;;4.13;;
2610;SDS011;5612;51.134;17.058;2023-02-01T16:04:04;6.83;;;4.10;;
2610;SDS011;5612;51.134;17.058;2023-02-01T16:06:48;5.70;;;3.60;;
2610;SDS011;5612;51.134;17.058;2023-02-01T16:09:19;6.00;;;3.50;;
2610;SDS011;5612;51.134;17.058;2023-02-01T16:11:53;4.77;;;3.60;;